Time;durP1;ratioP1;P1;durP2;ratioP2;P2;SDS_P1;SDS_P2;PMS_P1;PMS_P2;Temp;Humidity;BMP_temperature;BMP_pressure;BME280_temperature;BME280_humidity;BME280_pressure;Samples;Min_cycle;Max_cycle;Signal;HPM_P1;HPM_P2
2021/04/04 00:00:18;;;;;;;12.33;4.60;;;;;;;0.79;66.61;96842.56;5077412;28;20028;-78
2021/04/04 00:02:44;;;;;;;10.27;4.70;;;;;;;0.83;66.02;96838.88;5064234;28;20039;-77
2021/04/04 00:05:11;;;;;;;10.37;5.10;;;;;;;0.79;67.08;96840.81;5056479;28;20476;-77
2021/04/04 00:07:36;;;;;;;17.60;5.40;;;;;;;0.72;67.50;96849.00;5056437;28;20115;-77
2021/04/04 00:10:04;;;;;;;12.13;5.57;;;;;;;0.67;67.60;96841.47;5073509;28;20562;-77
2021/04/04 00:12:30;;;;;;;34.27;14.57;;;;;;;0.49;68.21;96839.88;5073602;28;20024;-77
2021/04/04 00:14:56;;;;;;;30.90;13.47;;;;;;;0.41;69.40;96837.72;5076020;28;20438;-78
2021/04/04 00:17:22;;;;;;;15.00;6.90;;;;;;;0.45;68.86;96842.63;5051433;28;20041;-77
2021/04/04 00:19:48;;;;;;;16.67;6.80;;;;;;;0.47;68.56;96839.97;5046786;28;20040;-77
2021/04/04 00:22:14;;;;;;;11.70;6.17;;;;;;;0.54;68.12;96840.47;5074531;28;20559;-77
2021/04/04 00:24:39;;;;;;;13.00;6.67;;;;;;;0.58;68.13;96845.41;5078558;28;20032;-77
2021/04/04 00:27:05;;;;;;;14.13;5.67;;;;;;;0.62;67.72;96843.47;5069777;28;20028;-77
2021/04/04 00:29:31;;;;;;;11.00;5.83;;;;;;;0.45;68.09;96846.97;5075677;28;20013;-77
2021/04/04 00:31:57;;;;;;;19.17;6.93;;;;;;;0.44;68.26;96845.31;5069064;28;20028;-77
2021/04/04 00:34:23;;;;;;;17.17;7.40;;;;;;;0.52;67.47;96848.31;5059302;28;20464;-77
2021/04/04 00:36:49;;;;;;;18.43;7.60;;;;;;;0.38;68.39;96843.06;5066954;28;20607;-77
2021/04/04 00:39:16;;;;;;;15.13;7.03;;;;;;;0.45;68.40;96839.22;5068566;28;20528;-77
2021/04/04 00:41:42;;;;;;;12.43;6.97;;;;;;;0.39;68.75;96842.13;5057505;28;20483;-77
2021/04/04 00:44:11;;;;;;;14.23;6.73;;;;;;;0.28;68.30;96840.13;5073730;28;20612;-77
2021/04/04 00:46:38;;;;;;;13.17;6.30;;;;;;;0.32;68.96;96843.38;5071224;28;20481;-77
2021/04/04 00:49:04;;;;;;;15.67;7.50;;;;;;;0.32;68.89;96835.63;5054353;28;20466;-77
2021/04/04 00:51:31;;;;;;;14.77;6.13;;;;;;;0.30;69.21;96832.25;5064912;28;20481;-76
2021/04/04 00:53:58;;;;;;;13.50;6.97;;;;;;;0.30;68.97;96833.09;5066864;28;20458;-76
2021/04/04 00:56:25;;;;;;;16.30;6.67;;;;;;;0.28;68.76;96828.94;5039875;28;20501;-79
2021/04/04 00:58:52;;;;;;;13.13;6.90;;;;;;;0.21;69.29;96833.59;5062958;28;20467;-76
2021/04/04 01:01:18;;;;;;;17.30;7.80;;;;;;;0.21;68.71;96834.44;5071216;28;20459;-77
2021/04/04 01:03:43;;;;;;;13.23;6.83;;;;;;;0.22;69.24;96825.75;5069265;28;20459;-77
2021/04/04 01:06:11;;;;;;;15.47;6.60;;;;;;;0.24;69.60;96828.28;5058931;28;20021;-77
2021/04/04 01:08:38;;;;;;;15.03;6.63;;;;;;;0.30;68.76;96827.09;5079045;28;20078;-77
2021/04/04 01:11:06;;;;;;;14.53;6.43;;;;;;;0.21;69.77;96826.66;5072474;28;20879;-77
2021/04/04 01:13:54;;;;;;;15.43;6.87;;;;;;;0.14;70.08;96822.75;5054967;28;20482;-77
2021/04/04 01:16:34;;;;;;;12.27;7.13;;;;;;;-0.09;70.61;96821.34;5062948;28;21069;-77
2021/04/04 01:19:20;;;;;;;10.97;6.57;;;;;;;-0.15;70.84;96815.66;5067955;28;21038;-76
2021/04/04 01:21:52;;;;;;;16.60;6.27;;;;;;;-0.09;71.22;96823.94;5047949;28;20512;-77
2021/04/04 01:24:49;;;;;;;10.15;4.35;;;;;;;-0.08;69.50;96820.44;5088583;28;20459;-76
2021/04/04 01:27:25;;;;;;;13.63;6.73;;;;;;;-0.12;69.84;96815.50;5084395;28;20039;-76
2021/04/04 01:29:52;;;;;;;17.07;8.00;;;;;;;-0.04;69.63;96806.41;5074017;28;20459;-77
2021/04/04 01:32:18;;;;;;;13.77;7.10;;;;;;;-0.11;69.72;96822.34;5057559;28;20461;-77
2021/04/04 01:34:44;;;;;;;12.17;6.53;;;;;;;-0.24;70.86;96822.13;5079458;28;20533;-77
2021/04/04 01:37:13;;;;;;;15.50;7.97;;;;;;;-0.22;71.12;96824.66;5067216;28;20459;-77
2021/04/04 01:39:58;;;;;;;18.90;7.67;;;;;;;-0.15;70.20;96826.00;5077561;28;20485;-77
2021/04/04 01:42:23;;;;;;;12.97;6.93;;;;;;;-0.34;71.48;96826.94;5065821;28;21338;-77
2021/04/04 01:44:50;;;;;;;16.77;6.97;;;;;;;-0.55;72.22;96823.69;5078635;28;20450;-77
2021/04/04 01:47:17;;;;;;;15.90;7.00;;;;;;;-0.48;72.04;96819.03;5070175;28;20036;-76
2021/04/04 01:49:45;;;;;;;13.47;6.97;;;;;;;-0.58;71.90;96841.09;5072087;28;20523;-76
2021/04/04 01:52:12;;;;;;;14.30;6.63;;;;;;;-0.46;71.85;96827.56;5077636;28;20458;-76
2021/04/04 01:54:38;;;;;;;13.70;6.50;;;;;;;-0.45;71.88;96823.22;5074798;28;20463;-76
2021/04/04 01:57:05;;;;;;;10.97;6.40;;;;;;;-0.53;72.07;96821.88;5061528;28;20461;-76
2021/04/04 01:59:32;;;;;;;12.03;6.23;;;;;;;-0.43;71.26;96824.00;5081739;28;21032;-76
2021/04/04 02:01:59;;;;;;;15.63;6.57;;;;;;;-0.56;71.55;96826.38;5082140;28;20473;-76
2021/04/04 02:04:25;;;;;;;13.20;6.93;;;;;;;-0.45;71.47;96818.91;5062325;28;21013;-75
2021/04/04 02:06:51;;;;;;;14.03;7.43;;;;;;;-0.44;71.62;96825.72;5079139;28;20462;-76
2021/04/04 02:09:18;;;;;;;17.90;7.13;;;;;;;-0.37;70.46;96821.94;5080416;28;20545;-76
2021/04/04 02:11:45;;;;;;;14.33;7.20;;;;;;;-0.45;70.81;96818.06;5064939;28;20921;-76
2021/04/04 02:14:14;;;;;;;13.77;7.20;;;;;;;-0.56;71.77;96811.69;5059186;28;20596;-77
2021/04/04 02:16:46;;;;;;;16.63;7.50;;;;;;;-0.63;72.44;96815.50;5049229;28;20462;-76
2021/04/04 02:19:13;;;;;;;11.73;5.93;;;;;;;-0.65;72.07;96811.31;5069747;28;20512;-79
2021/04/04 02:21:42;;;;;;;12.50;6.20;;;;;;;-0.71;72.75;96818.44;5057550;28;20536;-77
2021/04/04 02:24:08;;;;;;;12.50;7.50;;;;;;;-0.76;73.11;96811.84;5075140;28;20508;-74
2021/04/04 02:26:34;;;;;;;15.33;6.70;;;;;;;-0.67;72.54;96807.97;5058215;28;20798;-76
2021/04/04 02:29:01;;;;;;;11.07;5.87;;;;;;;-0.62;72.30;96804.25;5061698;28;20471;-76
2021/04/04 02:31:31;;;;;;;13.77;6.67;;;;;;;-0.63;72.73;96804.34;5081399;28;20040;-76
2021/04/04 02:34:01;;;;;;;15.20;6.87;;;;;;;-0.62;73.05;96800.81;5082693;28;21276;-77
2021/04/04 02:36:28;;;;;;;14.07;6.37;;;;;;;-0.67;72.67;96798.50;5061023;28;20455;-76
2021/04/04 02:39:03;;;;;;;13.97;7.00;;;;;;;-0.61;72.83;96798.16;5053821;28;20817;-76
2021/04/04 02:41:31;;;;;;;14.57;7.23;;;;;;;-0.64;72.88;96797.47;5071621;28;20467;-76
2021/04/04 02:43:59;;;;;;;14.57;6.93;;;;;;;-0.66;72.70;96786.41;5063103;28;20446;-76
2021/04/04 02:46:27;;;;;;;14.83;6.77;;;;;;;-0.60;72.17;96802.44;5067863;28;20531;-76
2021/04/04 02:48:57;;;;;;;14.30;6.60;;;;;;;-0.62;72.08;96804.25;5077385;28;20437;-76
2021/04/04 02:51:32;;;;;;;15.73;6.67;;;;;;;-0.68;72.74;96796.78;5076310;28;20985;-76
2021/04/04 02:54:00;;;;;;;13.03;6.33;;;;;;;-0.72;72.82;96797.88;5058639;28;20483;-77
2021/04/04 02:56:29;;;;;;;11.43;5.90;;;;;;;-0.75;72.45;96801.44;5067412;28;20961;-78
2021/04/04 02:58:58;;;;;;;13.53;7.10;;;;;;;-0.73;72.23;96794.44;5061028;28;20536;-77
2021/04/04 03:01:27;;;;;;;17.27;7.07;;;;;;;-0.67;71.63;96797.63;5061681;28;20523;-77
2021/04/04 03:03:53;;;;;;;12.70;5.90;;;;;;;-0.67;71.89;96797.63;5068311;28;20478;-76
2021/04/04 03:06:20;;;;;;;13.17;5.37;;;;;;;-0.79;72.24;96802.50;5072041;28;20447;-76
2021/04/04 03:08:47;;;;;;;13.73;5.90;;;;;;;-0.74;72.42;96795.38;5080744;28;20022;-77
2021/04/04 03:11:15;;;;;;;15.10;6.03;;;;;;;-0.75;72.72;96798.84;5070726;28;20486;-76
2021/04/04 03:13:48;;;;;;;10.63;5.23;;;;;;;-0.84;72.88;96809.66;5080536;28;20465;-76
2021/04/04 03:16:16;;;;;;;13.17;5.63;;;;;;;-0.97;72.95;96809.41;5052914;28;21192;-76
2021/04/04 03:18:43;;;;;;;11.33;5.10;;;;;;;-0.97;73.30;96813.75;5068972;28;20486;-77
2021/04/04 03:21:11;;;;;;;11.50;5.10;;;;;;;-1.01;73.32;96810.44;5065603;28;20528;-77
2021/04/04 03:23:39;;;;;;;10.57;4.83;;;;;;;-0.92;73.37;96814.34;5056511;28;20456;-78
2021/04/04 03:26:06;;;;;;;12.70;5.37;;;;;;;-0.90;73.11;96807.38;5045936;28;20569;-76
2021/04/04 03:28:32;;;;;;;8.70;4.77;;;;;;;-1.00;73.36;96803.56;5084799;28;20530;-77
2021/04/04 03:31:01;;;;;;;16.53;5.50;;;;;;;-0.87;73.00;96804.63;5060020;28;20525;-77
2021/04/04 03:33:28;;;;;;;11.77;5.50;;;;;;;-0.83;72.61;96803.56;5064024;28;20467;-77
2021/04/04 03:35:56;;;;;;;13.60;5.30;;;;;;;-0.94;72.41;96800.66;5072259;28;20494;-75
2021/04/04 03:38:26;;;;;;;11.93;4.90;;;;;;;-1.07;73.21;96805.59;5062218;28;21197;-76
2021/04/04 03:40:53;;;;;;;11.87;4.87;;;;;;;-1.05;72.79;96808.09;5079190;28;20465;-77
2021/04/04 03:43:24;;;;;;;13.83;5.20;;;;;;;-1.06;73.02;96809.00;5062513;28;20470;-76
2021/04/04 03:45:57;;;;;;;11.33;5.30;;;;;;;-0.99;72.33;96797.47;5074708;28;21040;-77
2021/04/04 03:48:24;;;;;;;11.82;4.72;;;;;;;-1.05;73.32;96802.94;5067401;28;20486;-76
2021/04/04 03:50:53;;;;;;;14.37;4.70;;;;;;;-1.22;73.56;96807.16;5069188;28;20063;-77
2021/04/04 03:53:21;;;;;;;10.97;3.90;;;;;;;-1.17;73.47;96803.50;5059780;28;20470;-77
2021/04/04 03:55:52;;;;;;;8.53;4.53;;;;;;;-1.20;74.01;96805.34;5050131;28;20566;-76
2021/04/04 03:58:20;;;;;;;13.77;4.13;;;;;;;-1.33;74.12;96801.69;5083250;28;20446;-76
2021/04/04 04:00:47;;;;;;;10.07;4.30;;;;;;;-1.40;74.53;96802.88;5086616;28;20470;-75
2021/04/04 04:03:15;;;;;;;14.13;5.00;;;;;;;-1.35;75.14;96808.63;5082348;28;20856;-76
2021/04/04 04:05:41;;;;;;;12.70;4.50;;;;;;;-1.32;74.62;96800.75;5078992;28;20480;-75
2021/04/04 04:08:07;;;;;;;10.17;4.20;;;;;;;-1.46;74.56;96804.00;5063045;28;20454;-77
2021/04/04 04:10:34;;;;;;;9.53;3.90;;;;;;;-1.46;74.27;96801.41;5071820;28;20035;-76
2021/04/04 04:13:02;;;;;;;10.47;4.20;;;;;;;-1.38;74.47;96789.91;5066140;28;20903;-76
2021/04/04 04:15:28;;;;;;;8.73;4.10;;;;;;;-1.34;74.34;96797.44;5074949;28;20502;-76
2021/04/04 04:17:56;;;;;;;10.90;3.83;;;;;;;-1.24;73.40;96793.50;5079766;28;20434;-76
2021/04/04 04:20:22;;;;;;;10.20;4.90;;;;;;;-1.15;73.30;96794.78;5065900;28;20524;-76
2021/04/04 04:22:49;;;;;;;8.63;4.10;;;;;;;-1.24;72.93;96790.94;5079281;28;20449;-75
2021/04/04 04:25:15;;;;;;;9.03;4.33;;;;;;;-1.44;73.55;96786.72;5062120;28;20467;-76
2021/04/04 04:27:42;;;;;;;7.57;4.13;;;;;;;-1.48;74.51;96794.66;5050548;28;20808;-76
2021/04/04 04:30:09;;;;;;;10.67;4.20;;;;;;;-1.55;75.29;96785.53;5076143;28;20111;-76
2021/04/04 04:32:38;;;;;;;11.33;4.17;;;;;;;-1.39;74.00;96789.06;5068243;28;20463;-76
2021/04/04 04:35:05;;;;;;;11.07;4.53;;;;;;;-1.29;73.82;96789.47;5076554;28;20450;-76
2021/04/04 04:37:34;;;;;;;11.53;4.03;;;;;;;-1.26;73.75;96785.00;5056027;28;21013;-76
2021/04/04 04:40:07;;;;;;;8.97;3.83;;;;;;;-1.29;73.65;96781.72;5077582;28;21211;-77
2021/04/04 04:42:35;;;;;;;12.98;5.13;;;;;;;-1.22;73.11;96781.34;5085143;28;20466;-76
2021/04/04 04:45:02;;;;;;;10.57;4.20;;;;;;;-1.25;73.43;96783.25;5065819;28;20024;-77
2021/04/04 04:47:29;;;;;;;8.87;4.87;;;;;;;-1.27;73.82;96785.91;5063456;28;20465;-76
2021/04/04 04:49:55;;;;;;;9.83;4.03;;;;;;;-1.31;74.05;96788.69;5074437;28;20538;-76
2021/04/04 04:52:23;;;;;;;8.70;4.30;;;;;;;-1.36;74.29;96788.91;5078234;28;20477;-77
2021/04/04 04:54:49;;;;;;;9.83;4.27;;;;;;;-1.32;74.04;96781.88;5080597;28;20445;-77
2021/04/04 04:57:15;;;;;;;10.17;4.87;;;;;;;-1.28;74.08;96785.97;5070211;28;20485;-76
2021/04/04 04:59:41;;;;;;;9.27;4.57;;;;;;;-1.32;73.49;96789.59;5071211;28;20028;-76
2021/04/04 05:02:10;;;;;;;12.03;4.80;;;;;;;-1.30;73.38;96791.22;5057490;28;20586;-77
2021/04/04 05:04:35;;;;;;;11.70;5.00;;;;;;;-1.20;73.63;96792.44;5055498;28;20032;-76
2021/04/04 05:07:03;;;;;;;10.57;4.73;;;;;;;-1.16;73.32;96787.13;5080182;28;21054;-76
2021/04/04 05:09:32;;;;;;;8.47;4.17;;;;;;;-1.18;73.68;96782.03;5063328;28;20032;-76
2021/04/04 05:11:59;;;;;;;12.57;6.70;;;;;;;-1.22;74.00;96778.78;5078451;28;20517;-76
2021/04/04 05:14:25;;;;;;;8.87;4.70;;;;;;;-1.18;74.60;96784.63;5078699;28;20990;-77
2021/04/04 05:16:53;;;;;;;11.13;4.80;;;;;;;-0.90;73.76;96784.13;5076766;28;20458;-78
2021/04/04 05:19:19;;;;;;;10.30;4.33;;;;;;;-0.63;72.67;96781.09;5077678;28;20366;-77
2021/04/04 05:21:44;;;;;;;10.67;4.90;;;;;;;-0.49;71.62;96776.06;5072847;28;20523;-77
2021/04/04 05:24:13;;;;;;;12.57;4.67;;;;;;;-0.31;71.29;96772.50;5079672;28;20030;-77
2021/04/04 05:26:46;;;;;;;10.60;4.40;;;;;;;-0.12;70.53;96771.56;5052400;28;20033;-77
2021/04/04 05:29:14;;;;;;;8.68;4.43;;;;;;;0.08;70.68;96766.16;5068276;28;20458;-76
2021/04/04 05:31:48;;;;;;;9.23;4.27;;;;;;;0.47;69.30;96773.53;5074182;28;20028;-77
2021/04/04 05:34:16;;;;;;;12.40;4.50;;;;;;;0.76;67.50;96767.66;5073135;28;20546;-76
2021/04/04 05:37:03;;;;;;;10.90;4.63;;;;;;;0.81;67.99;96769.06;5075046;28;20458;-76
2021/04/04 05:39:30;;;;;;;9.83;4.50;;;;;;;0.85;67.76;96765.38;5062026;28;20582;-76
2021/04/04 05:42:01;;;;;;;10.63;4.33;;;;;;;1.12;67.10;96769.91;5069549;28;20442;-77
2021/04/04 05:44:34;;;;;;;13.57;5.43;;;;;;;0.93;68.08;96772.72;5082461;28;20803;-76
2021/04/04 05:47:08;;;;;;;12.90;4.70;;;;;;;0.74;68.69;96779.84;5082042;28;20474;-76
2021/04/04 05:49:49;;;;;;;14.13;5.03;;;;;;;1.01;67.30;96773.13;5062271;28;20459;-76
2021/04/04 05:52:20;;;;;;;12.43;4.67;;;;;;;1.54;65.16;96770.91;5083524;28;21021;-76
2021/04/04 05:55:02;;;;;;;13.20;5.00;;;;;;;1.35;67.01;96771.19;5065788;28;20469;-76
2021/04/04 05:57:41;;;;;;;19.67;13.40;;;;;;;1.78;65.20;96763.47;5090276;28;21252;-76
2021/04/04 06:00:09;;;;;;;12.77;6.73;;;;;;;1.72;65.35;96759.47;5066525;28;20546;-76
2021/04/04 06:03:07;;;;;;;11.33;5.70;;;;;;;1.93;64.75;96756.50;5070272;28;20454;-76
2021/04/04 06:06:00;;;;;;;10.93;5.47;;;;;;;2.16;64.54;96758.53;5063953;28;20462;-76
2021/04/04 06:08:55;;;;;;;17.47;6.77;;;;;;;2.89;61.68;96755.66;5067728;28;20470;-77
2021/04/04 06:11:52;;;;;;;11.60;4.90;;;;;;;3.11;61.60;96754.25;5079989;28;20482;-77
2021/04/04 06:14:49;;;;;;;10.27;4.73;;;;;;;3.66;60.60;96755.78;5049693;28;20466;-76
2021/04/04 06:17:37;;;;;;;10.63;5.03;;;;;;;4.11;58.81;96757.00;5076926;28;20501;-75
2021/04/04 06:20:12;;;;;;;10.83;4.67;;;;;;;4.64;56.41;96756.75;5086517;28;20519;-77
2021/04/04 06:23:15;;;;;;;11.50;5.80;;;;;;;4.51;58.04;96746.38;5079349;28;20477;-78
2021/04/04 06:25:59;;;;;;;12.50;6.50;;;;;;;5.04;55.42;96757.31;5050434;28;20458;-76
2021/04/04 06:28:52;;;;;;;12.97;6.33;;;;;;;5.31;55.27;96751.03;5077988;28;21011;-76
2021/04/04 06:31:37;;;;;;;9.57;5.50;;;;;;;5.96;53.49;96744.38;5054217;28;20447;-76
2021/04/04 06:34:14;;;;;;;12.40;5.80;;;;;;;5.99;53.41;96752.00;5075413;28;20458;-77
2021/04/04 06:36:53;;;;;;;12.30;5.63;;;;;;;6.28;53.06;96747.13;5053911;28;21002;-77
2021/04/04 06:39:25;;;;;;;12.87;5.90;;;;;;;6.74;51.63;96743.47;5067054;28;20478;-77
2021/04/04 06:41:58;;;;;;;11.90;6.30;;;;;;;6.84;51.46;96745.25;5054571;28;20497;-76
2021/04/04 06:44:44;;;;;;;11.32;6.32;;;;;;;7.45;48.58;96738.56;5081348;28;20473;-77
2021/04/04 06:47:28;;;;;;;10.43;5.23;;;;;;;7.86;48.26;96742.13;5063894;28;20102;-77
2021/04/04 06:50:09;;;;;;;;;;;;;;;8.02;46.91;96739.84;5078003;28;20032;-76
2021/04/04 06:52:56;;;;;;;15.47;7.20;;;;;;;7.38;47.86;96738.25;5066687;28;19920;-77
2021/04/04 06:55:53;;;;;;;11.23;5.50;;;;;;;7.54;48.73;96743.88;5062274;28;20033;-76
2021/04/04 06:58:25;;;;;;;11.67;5.40;;;;;;;7.55;47.90;96749.94;5083479;28;20029;-76
2021/04/04 07:01:08;;;;;;;9.03;5.43;;;;;;;7.98;47.16;96741.06;5070974;28;20112;-77
2021/04/04 07:03:49;;;;;;;12.67;5.33;;;;;;;7.59;48.22;96740.03;5079064;28;20489;-76
2021/04/04 07:06:26;;;;;;;11.07;5.20;;;;;;;8.69;46.24;96741.91;5076006;28;20040;-76
2021/04/04 07:09:13;;;;;;;11.70;5.80;;;;;;;8.60;46.68;96742.69;5080278;28;20039;-76
2021/04/04 07:11:54;;;;;;;12.63;6.03;;;;;;;9.31;45.86;96739.03;5052251;28;20085;-76
2021/04/04 07:14:41;;;;;;;11.67;5.50;;;;;;;9.58;44.85;96741.78;5061345;28;20418;-76
2021/04/04 07:17:21;;;;;;;15.93;7.80;;;;;;;9.92;44.65;96741.28;5060412;28;20066;-76
2021/04/04 07:19:57;;;;;;;11.50;6.37;;;;;;;9.95;43.75;96740.19;5067539;28;20640;-76
2021/04/04 07:22:53;;;;;;;11.90;6.00;;;;;;;9.74;44.27;96748.25;5080435;28;20095;-76
2021/04/04 07:25:22;;;;;;;10.93;6.17;;;;;;;10.58;42.43;96738.56;5055475;28;20033;-77
2021/04/04 07:28:13;;;;;;;11.63;5.63;;;;;;;10.68;42.11;96743.78;5061070;28;20043;-76
2021/04/04 07:30:57;;;;;;;14.60;8.00;;;;;;;10.69;41.77;96740.16;5079803;28;20051;-76
2021/04/04 07:33:29;;;;;;;25.52;12.77;;;;;;;11.77;39.75;96733.09;5078848;28;20044;-77
2021/04/04 07:36:13;;;;;;;12.00;5.90;;;;;;;10.75;40.28;96744.00;5060085;28;20071;-76
2021/04/04 07:38:45;;;;;;;10.93;4.93;;;;;;;12.35;36.89;96732.44;5069858;28;20024;-77
2021/04/04 07:41:32;;;;;;;11.20;4.73;;;;;;;11.48;38.41;96731.53;5067896;28;20031;-76
2021/04/04 07:44:06;;;;;;;9.47;4.20;;;;;;;12.52;37.48;96729.88;5076684;28;20036;-76
2021/04/04 07:46:37;;;;;;;13.70;7.43;;;;;;;12.91;36.11;96728.38;5068034;28;20036;-76
2021/04/04 07:49:18;;;;;;;25.83;17.50;;;;;;;12.31;37.72;96733.75;5047704;28;20036;-76
2021/04/04 07:51:48;;;;;;;11.80;5.80;;;;;;;12.03;37.65;96735.72;5048812;28;20114;-76
2021/04/04 07:54:34;;;;;;;12.20;5.37;;;;;;;13.52;34.88;96733.41;5085942;28;20039;-76
2021/04/04 07:57:13;;;;;;;11.50;5.00;;;;;;;12.64;36.18;96737.38;5063647;28;20485;-77
2021/04/04 07:59:44;;;;;;;13.10;4.60;;;;;;;12.57;37.22;96735.50;5072617;28;20028;-77
2021/04/04 08:02:09;;;;;;;11.57;5.33;;;;;;;12.20;37.67;96736.66;5053961;28;20036;-77
2021/04/04 08:04:44;;;;;;;12.70;5.33;;;;;;;11.22;40.98;96741.19;5080886;28;20656;-77
2021/04/04 08:07:21;;;;;;;10.50;4.80;;;;;;;12.44;38.69;96734.16;5064853;28;20033;-77
2021/04/04 08:10:10;;;;;;;27.27;17.83;;;;;;;12.86;37.14;96738.56;5049086;28;20086;-77
2021/04/04 08:12:49;;;;;;;19.10;11.27;;;;;;;13.01;36.84;96736.16;5057694;28;20040;-75
2021/04/04 08:15:24;;;;;;;13.93;5.83;;;;;;;12.97;36.41;96738.25;5057052;28;20119;-76
2021/04/04 08:17:50;;;;;;;16.47;7.77;;;;;;;13.22;36.92;96735.69;5073929;28;20032;-77
2021/04/04 08:20:24;;;;;;;13.57;7.40;;;;;;;14.00;34.74;96732.53;5052935;28;20445;-76
2021/04/04 08:23:09;;;;;;;15.03;4.80;;;;;;;14.00;34.85;96729.88;5068965;28;20572;-76
2021/04/04 08:25:59;;;;;;;11.43;4.67;;;;;;;13.70;35.86;96728.78;5061431;28;20035;-77
2021/04/04 08:28:42;;;;;;;11.77;5.60;;;;;;;14.30;34.47;96730.16;5049400;28;20055;-77
2021/04/04 08:31:28;;;;;;;7.88;4.50;;;;;;;15.08;33.12;96727.47;5079712;28;20072;-76
2021/04/04 08:34:04;;;;;;;8.13;4.27;;;;;;;15.87;32.11;96726.44;5069971;28;20529;-76
2021/04/04 08:36:33;;;;;;;10.03;4.73;;;;;;;16.19;31.28;96726.06;5058298;28;20032;-77
2021/04/04 08:39:01;;;;;;;11.23;4.93;;;;;;;16.15;31.40;96716.03;5052091;28;20029;-76
2021/04/04 08:41:31;;;;;;;8.50;4.43;;;;;;;16.17;31.15;96720.16;5071691;28;20043;-76
2021/04/04 08:43:59;;;;;;;10.70;4.37;;;;;;;16.38;31.07;96724.72;5063380;28;20020;-76
2021/04/04 08:46:44;;;;;;;9.90;4.77;;;;;;;16.19;31.15;96719.94;5059831;28;20029;-76
2021/04/04 08:49:11;;;;;;;8.87;4.10;;;;;;;16.45;29.97;96719.50;5062324;28;20070;-76
2021/04/04 08:51:41;;;;;;;8.33;4.23;;;;;;;16.63;30.23;96719.09;5067071;28;20028;-76
2021/04/04 08:54:13;;;;;;;12.27;6.27;;;;;;;15.88;31.98;96728.06;5075695;28;20028;-76
2021/04/04 08:56:41;;;;;;;11.93;6.13;;;;;;;16.53;30.06;96722.03;5049976;28;20646;-77
2021/04/04 08:59:08;;;;;;;10.73;3.90;;;;;;;16.26;30.15;96720.84;5069858;28;20042;-76
2021/04/04 09:01:38;;;;;;;11.63;4.90;;;;;;;15.90;30.46;96720.75;5087245;28;20447;-76
2021/04/04 09:04:07;;;;;;;8.23;3.73;;;;;;;16.50;29.77;96720.59;5061933;28;20123;-76
2021/04/04 09:06:39;;;;;;;6.43;3.10;;;;;;;16.27;30.21;96726.00;5058506;28;20039;-76
2021/04/04 09:09:21;;;;;;;6.05;3.50;;;;;;;16.43;27.83;96718.84;5059565;28;20053;-76
2021/04/04 09:11:49;;;;;;;4.93;2.47;;;;;;;15.84;28.50;96722.28;5072071;28;20035;-76
2021/04/04 09:14:17;;;;;;;5.63;2.70;;;;;;;16.05;28.61;96716.28;5063532;28;20465;-76
2021/04/04 09:16:57;;;;;;;6.07;2.50;;;;;;;16.97;26.29;96718.53;5050625;28;20028;-76
2021/04/04 09:19:35;;;;;;;13.23;7.33;;;;;;;14.66;29.57;96717.31;5060716;28;20044;-76
2021/04/04 09:22:10;;;;;;;5.37;2.60;;;;;;;13.78;31.47;96728.78;5057767;28;20021;-76
2021/04/04 09:24:52;;;;;;;6.50;2.80;;;;;;;14.11;30.13;96720.75;5061626;28;20028;-76
2021/04/04 09:27:20;;;;;;;6.10;2.63;;;;;;;13.43;31.15;96722.00;5045562;28;20088;-76
2021/04/04 09:29:51;;;;;;;8.47;3.00;;;;;;;12.49;33.04;96723.09;5054802;28;20451;-76
2021/04/04 09:32:59;;;;;;;10.20;3.57;;;;;;;11.65;33.48;96723.78;5078101;28;20033;-76
2021/04/04 09:35:25;;;;;;;5.77;2.37;;;;;;;12.98;31.08;96721.44;5016317;28;20148;-76
2021/04/04 09:38:16;;;;;;;5.77;2.33;;;;;;;13.26;30.75;96718.53;4965900;28;20193;-77
2021/04/04 09:40:44;;;;;;;7.07;3.03;;;;;;;13.09;30.81;96714.19;5056351;28;20722;-76
2021/04/04 09:43:11;;;;;;;5.47;2.77;;;;;;;12.30;33.65;96718.06;5064316;28;20039;-78
2021/04/04 09:45:37;;;;;;;8.80;3.20;;;;;;;12.98;31.86;96715.34;5059746;28;20054;-80
2021/04/04 09:48:24;;;;;;;5.37;2.50;;;;;;;12.62;33.17;96712.13;5067157;28;20032;-77
2021/04/04 09:51:03;;;;;;;7.13;2.73;;;;;;;12.13;33.26;96719.81;5072205;28;20557;-79
2021/04/04 09:53:58;;;;;;;5.97;2.70;;;;;;;14.45;29.96;96696.66;5063010;28;20414;-77
2021/04/04 09:56:31;;;;;;;5.77;2.60;;;;;;;16.54;26.68;96694.50;5055556;28;20237;-77
2021/04/04 09:58:59;;;;;;;6.53;2.90;;;;;;;17.22;27.00;96686.28;5063438;28;20032;-77
2021/04/04 10:01:31;;;;;;;4.53;2.57;;;;;;;17.60;26.20;96695.63;5067592;28;20036;-78
2021/04/04 10:04:08;;;;;;;6.57;2.87;;;;;;;18.60;24.49;96672.31;5091341;28;20036;-77
2021/04/04 10:06:37;;;;;;;6.40;3.87;;;;;;;16.77;26.29;96685.59;5079292;28;20059;-77
2021/04/04 10:09:08;;;;;;;3.77;2.10;;;;;;;17.77;24.73;96674.09;5084718;28;20560;-78
2021/04/04 10:11:35;;;;;;;7.10;2.83;;;;;;;17.93;23.20;96672.97;5060131;28;20126;-77
2021/04/04 10:14:11;;;;;;;8.83;2.67;;;;;;;18.34;23.00;96675.69;5065693;28;20024;-78
2021/04/04 10:16:37;;;;;;;5.45;2.22;;;;;;;17.78;23.15;96670.44;5069265;28;20031;-77
2021/04/04 10:19:16;;;;;;;6.18;2.67;;;;;;;17.31;23.77;96679.84;5080101;28;20547;-77
2021/04/04 10:21:57;;;;;;;5.97;2.50;;;;;;;15.00;28.49;96679.03;5090512;28;20088;-77
2021/04/04 10:24:35;;;;;;;7.23;3.17;;;;;;;13.99;30.01;96680.66;5054989;28;20063;-78
2021/04/04 10:27:19;;;;;;;6.13;2.77;;;;;;;14.11;30.12;96681.91;5054271;28;20036;-77
2021/04/04 10:29:46;;;;;;;7.37;3.27;;;;;;;16.97;26.21;96662.75;5072815;28;20111;-77
2021/04/04 10:32:13;;;;;;;7.97;3.40;;;;;;;17.44;25.88;96661.34;5077426;28;20031;-76
2021/04/04 10:34:46;;;;;;;7.37;3.10;;;;;;;17.56;25.27;96658.97;5080934;28;20032;-77
2021/04/04 10:37:26;;;;;;;6.63;3.03;;;;;;;17.97;24.42;96650.28;5076867;28;20028;-77
2021/04/04 10:39:56;;;;;;;5.83;2.40;;;;;;;16.31;26.11;96657.47;5065270;28;20111;-78
2021/04/04 10:42:26;;;;;;;13.07;6.93;;;;;;;15.11;28.68;96656.63;5061817;28;20374;-77
2021/04/04 10:45:12;;;;;;;6.73;3.07;;;;;;;14.94;29.44;96659.38;5071831;28;20028;-77
2021/04/04 10:47:39;;;;;;;8.73;3.67;;;;;;;14.19;29.46;96657.28;5052725;28;20052;-78
2021/04/04 10:50:09;;;;;;;11.40;3.37;;;;;;;14.19;30.27;96659.91;5068502;28;20118;-78
2021/04/04 10:52:37;;;;;;;9.97;4.90;;;;;;;14.04;29.88;96653.69;5071800;28;20036;-77
2021/04/04 10:55:04;;;;;;;8.90;4.33;;;;;;;13.78;30.34;96654.75;5070335;28;20052;-77
2021/04/04 10:57:31;;;;;;;14.13;5.00;;;;;;;14.21;29.35;96659.75;5067191;28;20489;-76
2021/04/04 10:59:58;;;;;;;6.50;2.83;;;;;;;16.48;26.36;96652.75;5052760;28;20037;-75
2021/04/04 11:02:24;;;;;;;6.30;2.87;;;;;;;15.12;27.16;96647.66;5090513;28;20242;-76
2021/04/04 11:04:51;;;;;;;6.70;2.80;;;;;;;15.25;27.97;96646.06;5063658;28;20028;-78
2021/04/04 11:07:20;;;;;;;6.10;2.53;;;;;;;15.06;27.70;96647.38;5080983;28;20028;-76
2021/04/04 11:09:47;;;;;;;9.53;2.93;;;;;;;15.29;27.23;96644.72;5051265;28;20028;-76
2021/04/04 11:12:14;;;;;;;7.50;3.73;;;;;;;16.26;25.78;96636.78;5065642;28;20487;-76
2021/04/04 11:14:41;;;;;;;7.17;3.33;;;;;;;16.26;25.87;96628.81;5070389;28;20039;-76
2021/04/04 11:17:07;;;;;;;6.23;2.57;;;;;;;16.94;25.19;96629.41;5060978;28;20024;-77
2021/04/04 11:19:35;;;;;;;6.93;3.03;;;;;;;17.60;23.59;96617.69;5076054;28;20055;-76
2021/04/04 11:22:03;;;;;;;7.63;2.77;;;;;;;18.68;22.52;96610.03;5048462;28;20028;-76
2021/04/04 11:24:28;;;;;;;8.55;3.03;;;;;;;17.75;23.53;96604.28;5055702;28;20107;-77
2021/04/04 11:26:59;;;;;;;4.75;2.47;;;;;;;15.82;27.42;96617.41;5069478;28;20081;-76
2021/04/04 11:29:28;;;;;;;6.50;2.70;;;;;;;17.43;24.55;96612.63;5090361;28;20410;-77
2021/04/04 11:31:58;;;;;;;5.18;2.35;;;;;;;16.27;25.67;96616.38;5067428;28;20025;-76
2021/04/04 11:34:34;;;;;;;6.63;2.90;;;;;;;16.10;25.58;96618.41;5060324;28;20597;-76
2021/04/04 11:37:02;;;;;;;6.10;2.40;;;;;;;15.27;26.29;96611.44;5054509;28;20040;-76
2021/04/04 11:39:29;;;;;;;7.93;2.25;;;;;;;16.33;26.07;96612.97;5059855;28;20097;-77
2021/04/04 11:42:02;;;;;;;6.27;2.63;;;;;;;16.66;25.29;96605.38;5071705;28;20706;-76
2021/04/04 11:44:37;;;;;;;5.03;2.33;;;;;;;17.44;24.35;96600.19;5077650;28;20090;-76
2021/04/04 11:47:15;;;;;;;8.30;2.88;;;;;;;19.05;22.80;96590.91;5062336;28;20126;-76
2021/04/04 11:49:47;;;;;;;5.72;2.17;;;;;;;19.40;22.77;96596.03;5054567;28;20044;-76
2021/04/04 11:52:16;;;;;;;5.57;2.17;;;;;;;18.97;21.62;96587.59;5072560;28;20715;-76